Time,TemperatureF,DewpointF,PressureIn,WindDirection,WindDirectionDegrees,WindSpeedMPH,WindSpeedGustMPH,Humidity,HourlyPrecipIn,Conditions,Clouds,dailyrainin,SoftwareType,DateUTC
2013-08-10 00:11:00,46.2,43.0,30.02,South,177,0.0,5.0,87,0.00,,,0.00,weatherlink.com 1.10,2013-08-10 06:11:00,
2013-08-10 00:26:00,47.0,43.0,30.01,South,169,0.0,7.0,86,0.00,,,0.00,weatherlink.com 1.10,2013-08-10 06:26:00,
2013-08-10 00:41:00,47.0,43.0,30.02,NE,34,0.0,5.0,85,0.00,,,0.00,weatherlink.com 1.10,2013-08-10 06:41:00,
2013-08-10 00:56:00,46.5,43.0,30.02,East,88,0.0,2.0,86,0.00,,,0.00,weatherlink.com 1.10,2013-08-10 06:56:00,
2013-08-10 01:11:00,47.6,43.0,30.02,WSW,254,2.0,6.0,83,0.00,,,0.00,weatherlink.com 1.10,2013-08-10 07:11:00,
2013-08-10 01:26:00,48.3,43.0,30.02,East,98,0.0,0.0,81,0.00,,,0.00,weatherlink.com 1.10,2013-08-10 07:26:00,
2013-08-10 01:41:00,47.5,42.0,30.01,East,98,0.0,0.0,82,0.00,,,0.00,weatherlink.com 1.10,2013-08-10 07:41:00,
2013-08-10 01:56:00,46.9,42.0,30.01,NNE,32,0.0,2.0,84,0.00,,,0.00,weatherlink.com 1.10,2013-08-10 07:56:00,
2013-08-10 02:11:00,46.6,43.0,30.01,NW,323,0.0,5.0,86,0.00,,,0.00,weatherlink.com 1.10,2013-08-10 08:11:00,
2013-08-10 02:26:00,45.3,42.0,30.02,WSW,257,0.0,2.0,87,0.00,,,0.00,weatherlink.com 1.10,2013-08-10 08:26:00,
2013-08-10 02:41:00,44.5,42.0,30.02,WSW,257,0.0,0.0,89,0.00,,,0.00,weatherlink.com 1.10,2013-08-10 08:41:00,
2013-08-10 02:56:00,44.0,41.0,30.01,WSW,257,0.0,0.0,89,0.00,,,0.00,weatherlink.com 1.10,2013-08-10 08:56:00,
2013-08-10 03:11:00,43.8,41.0,30.01,WSW,257,0.0,0.0,90,0.00,,,0.00,weatherlink.com 1.10,2013-08-10 09:11:00,
2013-08-10 03:26:00,43.2,41.0,30.01,WSW,257,0.0,0.0,91,0.00,,,0.00,weatherlink.com 1.10,2013-08-10 09:26:00,
2013-08-10 03:41:00,42.9,41.0,30.01,WSW,257,0.0,0.0,91,0.00,,,0.00,weatherlink.com 1.10,2013-08-10 09:41:00,
2013-08-10 03:56:00,42.2,40.0,30.00,WSW,257,0.0,0.0,91,0.00,,,0.00,weatherlink.com 1.10,2013-08-10 09:56:00,
2013-08-10 04:11:00,42.2,40.0,30.00,WSW,257,0.0,0.0,92,0.00,,,0.00,weatherlink.com 1.10,2013-08-10 10:11:00,
2013-08-10 04:26:00,42.0,40.0,30.00,WSW,257,0.0,0.0,92,0.00,,,0.00,weatherlink.com 1.10,2013-08-10 10:26:00,
2013-08-10 04:41:00,42.1,40.0,30.01,WSW,257,0.0,0.0,92,0.00,,,0.00,weatherlink.com 1.10,2013-08-10 10:41:00,
2013-08-10 04:56:00,41.7,40.0,30.01,WSW,257,0.0,0.0,92,0.00,,,0.00,weatherlink.com 1.10,2013-08-10 10:56:00,
2013-08-10 05:11:00,41.2,39.0,30.01,WSW,257,0.0,0.0,92,0.00,,,0.00,weatherlink.com 1.10,2013-08-10 11:11:00,
2013-08-10 05:26:00,40.6,39.0,30.01,WSW,257,0.0,0.0,92,0.00,,,0.00,weatherlink.com 1.10,2013-08-10 11:26:00,
2013-08-10 05:41:00,40.3,38.0,30.01,WSW,257,0.0,0.0,92,0.00,,,0.00,weatherlink.com 1.10,2013-08-10 11:41:00,
2013-08-10 05:56:00,40.5,39.0,30.01,WSW,257,0.0,0.0,93,0.00,,,0.00,weatherlink.com 1.10,2013-08-10 11:56:00,
2013-08-10 06:12:00,40.8,39.0,30.02,WSW,257,0.0,0.0,93,0.00,,,0.00,weatherlink.com 1.10,2013-08-10 12:12:00,
2013-08-10 06:27:00,41.8,40.0,30.01,WSW,257,0.0,4.0,93,0.00,,,0.00,weatherlink.com 1.10,2013-08-10 12:27:00,
2013-08-10 06:42:00,42.1,40.0,30.02,WSW,257,0.0,0.0,93,0.00,,,0.00,weatherlink.com 1.10,2013-08-10 12:42:00,
2013-08-10 06:57:00,42.6,41.0,30.01,WSW,257,0.0,0.0,93,0.00,,,0.00,weatherlink.com 1.10,2013-08-10 12:57:00,
2013-08-10 07:12:00,44.0,42.0,30.01,NNE,25,0.0,2.0,94,0.00,,,0.00,weatherlink.com 1.10,2013-08-10 13:12:00,
2013-08-10 07:27:00,44.8,43.0,30.01,NNE,25,0.0,2.0,92,0.00,,,0.00,weatherlink.com 1.10,2013-08-10 13:27:00,
2013-08-10 07:42:00,45.7,43.0,30.01,NNE,25,0.0,0.0,91,0.00,,,0.00,weatherlink.com 1.10,2013-08-10 13:42:00,
2013-08-10 07:57:00,46.9,44.0,30.01,NNE,25,0.0,0.0,88,0.00,,,0.00,weatherlink.com 1.10,2013-08-10 13:57:00,
2013-08-10 08:12:00,48.3,44.0,30.01,NNE,25,0.0,0.0,86,0.00,,,0.00,weatherlink.com 1.10,2013-08-10 14:12:00,
2013-08-10 08:27:00,49.0,44.0,30.01,NNE,25,0.0,2.0,83,0.00,,,0.00,weatherlink.com 1.10,2013-08-10 14:27:00,
2013-08-10 08:42:00,49.8,44.0,30.01,NNE,25,0.0,2.0,80,0.00,,,0.00,weatherlink.com 1.10,2013-08-10 14:42:00,
2013-08-10 08:57:00,50.2,45.0,30.01,NNE,25,0.0,0.0,83,0.00,,,0.00,weatherlink.com 1.10,2013-08-10 14:57:00,
2013-08-10 09:12:00,55.4,46.0,30.01,ESE,119,0.0,4.0,70,0.00,,,0.00,weatherlink.com 1.10,2013-08-10 15:12:00,
2013-08-10 09:27:00,58.1,44.0,30.00,SE,143,1.0,6.0,60,0.00,,,0.00,weatherlink.com 1.10,2013-08-10 15:27:00,
2013-08-10 09:42:00,60.3,44.0,30.00,ENE,75,0.0,3.0,56,0.00,,,0.00,weatherlink.com 1.10,2013-08-10 15:42:00,
2013-08-10 09:57:00,61.2,43.0,30.00,SW,232,0.0,3.0,51,0.00,,,0.00,weatherlink.com 1.10,2013-08-10 15:57:00,
2013-08-10 10:12:00,62.7,42.0,30.00,West,273,3.0,5.0,47,0.00,,,0.00,weatherlink.com 1.10,2013-08-10 16:12:00,
2013-08-10 10:27:00,63.6,39.0,30.00,South,184,0.0,4.0,41,0.00,,,0.00,weatherlink.com 1.10,2013-08-10 16:27:00,
2013-08-10 10:42:00,64.4,41.0,30.00,West,267,0.0,6.0,42,0.00,,,0.00,weatherlink.com 1.10,2013-08-10 16:42:00,
2013-08-10 10:57:00,65.2,39.0,30.00,South,182,2.0,7.0,39,0.00,,,0.00,weatherlink.com 1.10,2013-08-10 16:57:00,
2013-08-10 11:13:00,65.8,38.0,29.99,SW,221,0.0,6.0,36,0.00,,,0.00,weatherlink.com 1.10,2013-08-10 17:13:00,
2013-08-10 11:28:00,66.8,39.0,29.99,WSW,239,0.0,9.0,36,0.00,,,0.00,weatherlink.com 1.10,2013-08-10 17:28:00,
2013-08-10 11:43:00,67.8,37.0,29.99,West,260,0.0,7.0,32,0.00,,,0.00,weatherlink.com 1.10,2013-08-10 17:43:00,
2013-08-10 11:58:00,68.1,37.0,29.98,SSW,193,0.0,10.0,32,0.00,,,0.00,weatherlink.com 1.10,2013-08-10 17:58:00,
2013-08-10 12:12:00,69.4,37.0,29.98,ESE,111,0.0,12.0,30,0.00,,,0.00,weatherlink.com 1.10,2013-08-10 18:12:00,
2013-08-10 12:27:00,69.5,37.0,29.97,SE,130,2.0,10.0,30,0.00,,,0.00,weatherlink.com 1.10,2013-08-10 18:27:00,
2013-08-10 12:42:00,69.9,37.0,29.97,NW,315,3.0,11.0,30,0.00,,,0.00,weatherlink.com 1.10,2013-08-10 18:42:00,
2013-08-10 12:59:00,69.5,36.0,29.96,ESE,115,1.0,9.0,29,0.00,,,0.00,weatherlink.com 1.10,2013-08-10 18:59:00,
2013-08-10 13:13:00,70.5,37.0,29.95,South,178,5.0,6.0,29,0.00,,,0.00,weatherlink.com 1.10,2013-08-10 19:13:00,
2013-08-10 13:28:00,68.6,35.0,29.95,SSW,198,0.0,6.0,29,0.00,,,0.00,weatherlink.com 1.10,2013-08-10 19:28:00,
2013-08-10 13:43:00,66.9,34.0,29.95,NW,306,0.0,6.0,30,0.00,,,0.00,weatherlink.com 1.10,2013-08-10 19:43:00,
2013-08-10 13:58:00,66.7,35.0,29.94,WSW,252,0.0,4.0,31,0.00,,,0.00,weatherlink.com 1.10,2013-08-10 19:58:00,
2013-08-10 14:13:00,69.5,34.0,29.93,NNW,331,2.0,7.0,27,0.00,,,0.00,weatherlink.com 1.10,2013-08-10 20:13:00,
2013-08-10 14:28:00,68.6,33.0,29.94,WNW,295,1.0,6.0,27,0.00,,,0.00,weatherlink.com 1.10,2013-08-10 20:28:00,
2013-08-10 14:43:00,67.1,33.0,29.94,WNW,292,0.0,5.0,28,0.00,,,0.00,weatherlink.com 1.10,2013-08-10 20:43:00,
2013-08-10 14:58:00,67.3,33.0,29.93,WNW,292,1.0,3.0,28,0.00,,,0.00,weatherlink.com 1.10,2013-08-10 20:58:00,
2013-08-10 15:14:00,67.9,33.0,29.93,NW,305,0.0,4.0,27,0.00,,,0.00,weatherlink.com 1.10,2013-08-10 21:14:00,
2013-08-10 15:29:00,68.0,33.0,29.92,NW,305,0.0,2.0,27,0.00,,,0.00,weatherlink.com 1.10,2013-08-10 21:29:00,
2013-08-10 15:44:00,65.9,34.0,29.92,WSW,238,2.0,11.0,30,0.00,,,0.00,weatherlink.com 1.10,2013-08-10 21:44:00,
2013-08-10 15:59:00,63.3,34.0,29.92,West,267,1.0,10.0,33,0.00,,,0.00,weatherlink.com 1.10,2013-08-10 21:59:00,
2013-08-10 16:14:00,63.1,32.0,29.92,West,279,4.0,8.0,31,0.00,,,0.00,weatherlink.com 1.10,2013-08-10 22:14:00,
2013-08-10 16:29:00,64.5,33.0,29.91,WSW,254,0.0,4.0,31,0.00,,,0.00,weatherlink.com 1.10,2013-08-10 22:29:00,
2013-08-10 16:44:00,65.7,32.0,29.91,WSW,254,0.0,2.0,28,0.00,,,0.00,weatherlink.com 1.10,2013-08-10 22:44:00,
2013-08-10 16:59:00,66.5,34.0,29.89,South,172,0.0,5.0,30,0.00,,,0.00,weatherlink.com 1.10,2013-08-10 22:59:00,
2013-08-10 17:14:00,66.5,34.0,29.89,ESE,105,0.0,5.0,30,0.00,,,0.00,weatherlink.com 1.10,2013-08-10 23:14:00,
2013-08-10 17:29:00,66.9,34.0,29.90,South,178,2.0,7.0,29,0.00,,,0.00,weatherlink.com 1.10,2013-08-10 23:29:00,
2013-08-10 17:44:00,67.4,35.0,29.90,SSW,208,0.0,5.0,30,0.00,,,0.00,weatherlink.com 1.10,2013-08-10 23:44:00,
2013-08-10 17:59:00,65.2,38.0,29.91,SSW,193,1.0,16.0,37,0.00,,,0.00,weatherlink.com 1.10,2013-08-10 23:59:00,
2013-08-10 18:14:00,61.5,39.0,29.90,South,174,0.0,13.0,44,0.00,,,0.00,weatherlink.com 1.10,2013-08-11 00:14:00,
2013-08-10 18:29:00,60.1,39.0,29.90,SSE,159,3.0,18.0,46,0.00,,,0.00,weatherlink.com 1.10,2013-08-11 00:29:00,
2013-08-10 18:44:00,59.2,39.0,29.89,South,177,6.0,13.0,47,0.00,,,0.00,weatherlink.com 1.10,2013-08-11 00:44:00,
2013-08-10 18:59:00,58.9,40.0,29.89,SSW,198,2.0,12.0,49,0.00,,,0.00,weatherlink.com 1.10,2013-08-11 00:59:00,
2013-08-10 19:14:00,58.4,39.0,29.89,West,268,4.0,17.0,48,0.00,,,0.00,weatherlink.com 1.10,2013-08-11 01:14:00,
2013-08-10 19:29:00,57.9,39.0,29.89,South,188,3.0,13.0,49,0.00,,,0.00,weatherlink.com 1.10,2013-08-11 01:29:00,
2013-08-10 19:44:00,57.2,38.0,29.90,South,190,10.0,20.0,49,0.00,,,0.00,weatherlink.com 1.10,2013-08-11 01:44:00,
2013-08-10 19:59:00,56.7,38.0,29.91,SW,233,1.0,12.0,49,0.00,,,0.00,weatherlink.com 1.10,2013-08-11 01:59:00,
2013-08-10 20:14:00,55.9,38.0,29.90,West,281,3.0,11.0,51,0.00,,,0.00,weatherlink.com 1.10,2013-08-11 02:14:00,
2013-08-10 20:29:00,55.3,38.0,29.90,WSW,253,2.0,11.0,52,0.00,,,0.00,weatherlink.com 1.10,2013-08-11 02:29:00,
2013-08-10 20:44:00,54.6,38.0,29.91,WSW,253,2.0,11.0,53,0.00,,,0.00,weatherlink.com 1.10,2013-08-11 02:44:00,
2013-08-10 20:59:00,53.9,38.0,29.91,WSW,246,2.0,7.0,56,0.00,,,0.00,weatherlink.com 1.10,2013-08-11 02:59:00,
2013-08-10 21:14:00,53.1,38.0,29.92,ESE,107,0.0,7.0,58,0.00,,,0.00,weatherlink.com 1.10,2013-08-11 03:14:00,
2013-08-10 21:29:00,52.8,38.0,29.94,NE,45,0.0,8.0,58,0.00,,,0.00,weatherlink.com 1.10,2013-08-11 03:29:00,
2013-08-10 21:44:00,52.6,38.0,29.93,ESE,113,0.0,6.0,58,0.00,,,0.00,weatherlink.com 1.10,2013-08-11 03:44:00,
2013-08-10 21:59:00,52.1,38.0,29.93,SSE,155,0.0,8.0,58,0.00,,,0.00,weatherlink.com 1.10,2013-08-11 03:59:00,
2013-08-10 22:15:00,52.3,38.0,29.92,West,260,0.0,5.0,58,0.00,,,0.00,weatherlink.com 1.10,2013-08-11 04:15:00,
2013-08-10 22:30:00,51.5,38.0,29.92,WSW,245,0.0,1.0,60,0.00,,,0.00,weatherlink.com 1.10,2013-08-11 04:30:00,
2013-08-10 22:45:00,50.9,38.0,29.92,West,262,0.0,0.0,61,0.00,,,0.00,weatherlink.com 1.10,2013-08-11 04:45:00,
2013-08-10 23:00:00,50.4,38.0,29.91,West,262,0.0,0.0,62,0.00,,,0.00,weatherlink.com 1.10,2013-08-11 05:00:00,
2013-08-10 23:14:00,50.3,38.0,29.91,SW,223,0.0,3.0,64,0.00,,,0.00,weatherlink.com 1.10,2013-08-11 05:14:00,
2013-08-10 23:29:00,49.9,38.0,29.91,South,186,0.0,0.0,65,0.00,,,0.00,weatherlink.com 1.10,2013-08-11 05:29:00,
2013-08-10 23:44:00,50.0,38.0,29.91,SW,215,2.0,10.0,64,0.00,,,0.00,weatherlink.com 1.10,2013-08-11 05:44:00,
2013-08-10 23:59:00,50.2,38.0,29.91,South,183,5.0,7.0,64,0.00,,,0.00,weatherlink.com 1.10,2013-08-11 05:59:00,